モンテレー の空港の天気 - METARとTAF

ヘネラル・マリアノ・エソコベド国際空港 ( MMMY / MTY ) - メキシコ ヌエボ・レオン州モンテレー
飛行場実況気象(Metar)
観測時間11/19 02:40 CST (11/19 08:40 UTC)
風向・風速西北西 2m/s
視程10km以上
天気現象
なし
気温13℃
湿度88%
気圧1014hPa
METARMMMY 190840Z 30004KT 10SM SKC 13/11 A2994 RMK SLP/// 5//// 9//
過去の天気等 Google飛行場航空写真 Wunderground天気予報

過去48時間のMETAR

飛行場予報(TAF)
発表時間: 11/18 23:38 CST (11/19 05:38 UTC)
予報対象時間: 19日0時 CST ~ 20日6時 CST
風向・風速静穏
視程10km以上
天気現象煙霧
なし
19日6時 CST ~ 19日9時 CST に一時的に
視程4830m
天気現象もや
全天の4割程度の雲 雲底高度 300m
19日12時 CST から
風向・風速南東 5m/s
視程10km以上
なし
19日21時 CST から
風向・風速南東 3m/s
視程10km以上
天気現象煙霧
なし
TAF MMMY 190538Z 1906/2012 00000KT 6SM HZ SKC TX27/1921Z TN13/1912Z
TEMPO 1912/1915 3SM BR SCT010
FM191800 13010KT P6SM SKC
FM200300 13005KT 6SM HZ SKC